createdAt,value
2024-04-19T00:00:11.119Z,74.92285
2024-04-19T00:02:11.006Z,74.87598
2024-04-19T00:04:11.195Z,74.69824
2024-04-19T00:06:11.024Z,74.7168
2024-04-19T00:09:16.484Z,75.02539
2024-04-19T00:11:16.511Z,75.02539
2024-04-19T00:13:16.420Z,74.69336
2024-04-19T00:15:16.551Z,74.70313
2024-04-19T00:17:16.364Z,75.00293
2024-04-19T00:19:16.420Z,74.57324
2024-04-19T00:21:16.555Z,74.63574
2024-04-19T00:24:11.696Z,74.91406
2024-04-19T00:26:11.596Z,74.76074
2024-04-19T00:28:12.058Z,74.92773
2024-04-19T00:30:11.747Z,74.39941
2024-04-19T00:32:11.738Z,74.79297
2024-04-19T00:34:11.938Z,74.94922
2024-04-19T00:36:11.877Z,74.82422
2024-04-19T00:38:56.793Z,73.96582
2024-04-19T00:40:56.793Z,75.0498
2024-04-19T00:42:56.839Z,75.31348
2024-04-19T00:44:56.907Z,75.22656
2024-04-19T00:46:57.061Z,74.89063
2024-04-19T00:48:56.917Z,74.65527
2024-04-19T00:50:56.774Z,74.81641
2024-04-19T00:52:56.820Z,74.47656
2024-04-19T00:54:46.569Z,74.85059
2024-04-19T00:56:46.218Z,74.83301
2024-04-19T00:58:46.199Z,75.09473
2024-04-19T01:00:46.425Z,74.90723
2024-04-19T01:02:46.353Z,74.85742
2024-04-19T01:04:46.226Z,75.01953
2024-04-19T01:06:46.708Z,74.5957
2024-04-19T01:09:23.822Z,74.5498
2024-04-19T01:11:23.855Z,75.08691
2024-04-19T01:13:24.228Z,74.88477
2024-04-19T01:15:23.801Z,74.93652
2024-04-19T01:17:23.777Z,74.81641
2024-04-19T01:19:23.803Z,75.08691
2024-04-19T01:21:24.136Z,75.16016
2024-04-19T01:25:13.605Z,75.30566
2024-04-19T01:27:13.569Z,75.21289
2024-04-19T01:29:13.624Z,75.16504
2024-04-19T01:31:13.525Z,75.25098
2024-04-19T01:33:14.221Z,75.37012
2024-04-19T01:35:13.530Z,75.59277
2024-04-19T01:37:13.564Z,75.32617
2024-04-19T01:40:06.858Z,75.41113
2024-04-19T01:42:07.317Z,75.21973
2024-04-19T01:44:06.838Z,75.13965
2024-04-19T01:46:06.867Z,75.0918
2024-04-19T01:48:07.099Z,75.41504
2024-04-19T01:50:06.822Z,75.51563
2024-04-19T01:52:06.794Z,75.52246
2024-04-19T01:55:26.474Z,75.74609
2024-04-19T01:57:26.286Z,75.41699
2024-04-19T01:59:26.322Z,75.52539
2024-04-19T02:01:26.669Z,76.07422
2024-04-19T02:03:26.370Z,76.05371
2024-04-19T02:05:26.276Z,75.75488
2024-04-19T02:07:26.202Z,75.61816
2024-04-19T02:09:52.425Z,75.75781
2024-04-19T02:11:52.441Z,75.82617
2024-04-19T02:13:52.432Z,76.00879
2024-04-19T02:15:52.442Z,75.78027
2024-04-19T02:17:52.564Z,75.70215
2024-04-19T02:19:52.347Z,75.56738
2024-04-19T02:21:52.432Z,75.96484
2024-04-19T02:25:06.494Z,76.34766
2024-04-19T02:27:06.386Z,76.1709
2024-04-19T02:29:06.334Z,75.97461
2024-04-19T02:31:06.399Z,75.54004
2024-04-19T02:33:06.524Z,75.26855
2024-04-19T02:35:06.651Z,75.37207
2024-04-19T02:37:06.352Z,75.42383
2024-04-19T02:40:14.965Z,76.27637
2024-04-19T02:42:14.834Z,76.43359
2024-04-19T02:44:14.726Z,76.01953
2024-04-19T02:46:14.992Z,76.33203
2024-04-19T02:48:14.809Z,76.88281
2024-04-19T02:50:14.746Z,76.75488
2024-04-19T02:52:14.922Z,77.05762
2024-04-19T02:56:02.578Z,77.375
2024-04-19T02:58:03.003Z,77.05566
2024-04-19T03:00:02.622Z,77.29004
2024-04-19T03:02:02.560Z,77.20898
2024-04-19T03:04:02.901Z,76.80469
2024-04-19T03:06:02.744Z,76.9209
2024-04-19T03:08:02.531Z,76.95508
2024-04-19T03:10:59.061Z,76.97363
2024-04-19T03:12:59.297Z,76.67871
2024-04-19T03:14:59.005Z,77.0166
2024-04-19T03:16:59.233Z,77.00977
2024-04-19T03:18:59.196Z,77.12793
2024-04-19T03:20:58.959Z,77.15039
2024-04-19T03:22:58.965Z,76.94531
2024-04-19T03:25:21.979Z,77.1543
2024-04-19T03:27:21.940Z,76.84863
2024-04-19T03:29:22.404Z,76.80762
2024-04-19T03:31:21.961Z,77.16309
2024-04-19T03:33:22.145Z,76.66309
2024-04-19T03:35:22.012Z,76.79102
2024-04-19T03:37:21.925Z,76.89844
2024-04-19T03:39:22.039Z,77.29004
2024-04-19T03:40:53.457Z,77.07324
2024-04-19T03:42:53.296Z,76.80469
2024-04-19T03:44:53.243Z,76.76758
2024-04-19T03:46:53.387Z,76.72363
2024-04-19T03:48:53.343Z,76.94336
2024-04-19T03:50:53.209Z,77.01563
2024-04-19T03:52:53.293Z,76.94238
2024-04-19T03:56:34.338Z,76.95117
2024-04-19T03:58:34.199Z,77.4209
2024-04-19T04:00:34.210Z,76.84375
2024-04-19T04:02:34.398Z,76.85059
2024-04-19T04:04:34.291Z,76.93066
2024-04-19T04:06:34.228Z,77.14746
2024-04-19T04:08:34.238Z,77.08496
2024-04-19T04:10:56.763Z,76.86035
2024-04-19T04:12:58.635Z,77.33398
2024-04-19T04:14:56.691Z,77.48535
2024-04-19T04:16:56.688Z,76.9502
2024-04-19T04:18:57.062Z,76.78223
2024-04-19T04:20:56.713Z,77.24414
2024-04-19T04:22:56.704Z,77.20898
2024-04-19T04:25:56.210Z,76.78906
2024-04-19T04:27:56.236Z,77.00195
2024-04-19T04:29:56.132Z,76.73047
2024-04-19T04:31:56.257Z,75.4873
2024-04-19T04:33:56.179Z,74.42871
2024-04-19T04:36:00.668Z,73.80273
2024-04-19T04:37:56.154Z,74.28906
2024-04-19T04:39:56.229Z,74.13184
2024-04-19T04:41:27.296Z,74.13477
2024-04-19T04:43:27.594Z,74.49316
2024-04-19T04:45:27.352Z,73.66992
2024-04-19T04:47:27.538Z,72.9873
2024-04-19T04:49:27.442Z,71.07813
2024-04-19T04:51:27.385Z,68.93262
2024-04-19T04:53:27.290Z,68.12207
2024-04-19T04:56:10.054Z,64.22949
2024-04-19T04:58:10.080Z,61.12402
2024-04-19T05:00:10.213Z,57.75977
2024-04-19T05:02:10.054Z,56.56445
2024-04-19T05:04:10.266Z,56.34082
2024-04-19T05:06:10.300Z,56.65918
2024-04-19T05:08:10.059Z,56.63672
2024-04-19T05:10:10.082Z,58.76074
2024-04-19T05:11:33.593Z,59.81836
2024-04-19T05:13:33.273Z,63.02344
2024-04-19T05:15:33.302Z,64.82227
2024-04-19T05:17:33.564Z,65.77344
2024-04-19T05:19:33.258Z,66.8418
2024-04-19T05:21:33.368Z,67.9375
2024-04-19T05:23:33.495Z,68.26172
2024-04-19T05:27:06.570Z,69.05957
2024-04-19T05:29:06.686Z,68.43945
2024-04-19T05:31:06.974Z,69.65332
2024-04-19T05:33:06.648Z,69.51758
2024-04-19T05:35:06.654Z,68.98242
2024-04-19T05:37:06.567Z,68.50977
2024-04-19T05:39:06.742Z,69.48926
2024-04-19T05:42:00.082Z,68.96191
2024-04-19T05:44:00.124Z,69.01758
2024-04-19T05:46:00.012Z,67.97266
2024-04-19T05:48:00.339Z,68.2002
2024-04-19T05:50:00.074Z,67.64746
2024-04-19T05:51:59.993Z,68.4082
2024-04-19T05:53:59.989Z,68.69922
2024-04-19T05:57:11.893Z,68.25488
2024-04-19T05:59:11.781Z,67.55859
2024-04-19T06:01:12.107Z,67.91113
2024-04-19T06:03:11.910Z,67.33496
2024-04-19T06:05:11.747Z,64.38477
2024-04-19T06:07:11.791Z,66.62207
2024-04-19T06:09:12.005Z,64.08496
2024-04-19T06:12:04.959Z,65.5127
2024-04-19T06:14:05.045Z,60.40918
2024-04-19T06:16:05.053Z,62.18945
2024-04-19T06:18:05.196Z,58.49414
2024-04-19T06:20:06.666Z,56.87305
2024-04-19T06:22:05.179Z,59.68848
2024-04-19T06:24:05.023Z,57.26465
2024-04-19T06:27:08.364Z,59.69824
2024-04-19T06:29:08.348Z,56.55957
2024-04-19T06:31:08.496Z,57.35352
2024-04-19T06:33:08.393Z,57.06836
2024-04-19T06:35:08.294Z,55.1875
2024-04-19T06:37:08.338Z,55.59863
2024-04-19T06:39:08.302Z,55.4707
2024-04-19T06:42:14.017Z,54.98535
2024-04-19T06:44:13.561Z,54.87012
2024-04-19T06:46:13.428Z,54.81152
2024-04-19T06:48:13.640Z,53.8584
2024-04-19T06:50:13.390Z,53.25488
2024-04-19T06:52:13.605Z,55.91211
2024-04-19T06:54:13.387Z,56.38965
2024-04-19T06:57:34.853Z,52.49023
2024-04-19T06:59:34.663Z,55.82715
2024-04-19T07:01:34.716Z,54.5332
2024-04-19T07:03:34.902Z,55.57422
2024-04-19T07:05:34.684Z,56.02051
2024-04-19T07:07:35.314Z,54.78809
2024-04-19T07:09:34.742Z,55.1748
2024-04-19T07:12:53.098Z,53.65723
2024-04-19T07:14:52.774Z,51.79004
2024-04-19T07:16:52.818Z,53.04004
2024-04-19T07:18:52.964Z,52.70898
2024-04-19T07:20:52.875Z,53.22363
2024-04-19T07:22:52.807Z,54.64844
2024-04-19T07:24:52.965Z,51.61426
2024-04-19T07:27:46.586Z,54.96484
2024-04-19T07:29:35.799Z,53.52441
2024-04-19T07:31:35.846Z,52.58691
2024-04-19T07:33:35.904Z,52.13379
2024-04-19T07:35:35.848Z,53.3291
2024-04-19T07:37:35.865Z,51.02148
2024-04-19T07:39:35.945Z,52.66602
2024-04-19T07:43:11.211Z,48.39551
2024-04-19T07:45:11.362Z,49.12402
2024-04-19T07:47:11.489Z,49.9248
2024-04-19T07:49:11.554Z,47.33594
2024-04-19T07:51:11.152Z,46.17383
2024-04-19T07:53:11.099Z,49.3584
2024-04-19T07:55:11.451Z,48.31738
2024-04-19T07:58:23.519Z,46.15332
2024-04-19T08:00:23.739Z,46.54102
2024-04-19T08:02:23.721Z,48.58398
2024-04-19T08:04:23.743Z,45.75586
2024-04-19T08:06:23.753Z,47.46387
2024-04-19T08:08:23.605Z,46.55469
2024-04-19T08:10:23.544Z,45.70703
2024-04-19T08:13:01.731Z,48.80859
2024-04-19T08:15:01.499Z,46.44824
2024-04-19T08:17:01.603Z,47.02441
2024-04-19T08:19:01.647Z,47.29102
2024-04-19T08:21:01.528Z,45.12793
2024-04-19T08:23:01.565Z,45.2041
2024-04-19T08:25:01.630Z,44.39648
2024-04-19T08:28:11.956Z,45.10645
2024-04-19T08:30:12.258Z,46.73047
2024-04-19T08:32:12.104Z,45.38574
2024-04-19T08:34:12.038Z,44.92871
2024-04-19T08:36:12.131Z,45.06445
2024-04-19T08:38:12.023Z,45.22949
2024-04-19T08:40:12.172Z,45.53223
2024-04-19T08:43:43.794Z,45.91797
2024-04-19T08:45:43.928Z,44.82324
2024-04-19T08:47:43.951Z,44.47559
2024-04-19T08:49:43.735Z,42.38574
2024-04-19T08:52:00.403Z,40.06836
2024-04-19T08:53:43.902Z,42.14453
2024-04-19T08:55:43.721Z,41.99609
2024-04-19T08:59:05.730Z,39.80664
2024-04-19T09:01:05.926Z,43.12207
2024-04-19T09:03:06.219Z,42.76465
2024-04-19T09:05:05.925Z,40.53418
2024-04-19T09:07:05.632Z,37.90234
2024-04-19T09:09:05.694Z,40.7793
2024-04-19T09:11:05.677Z,39.7168
2024-04-19T09:13:59.805Z,41.12305
2024-04-19T09:15:59.999Z,41.24316
2024-04-19T09:17:59.916Z,37.66406
2024-04-19T09:20:00.129Z,36.95313
2024-04-19T09:21:59.972Z,37.92773
2024-04-19T09:23:59.909Z,36.70215
2024-04-19T09:25:59.865Z,39.34277
2024-04-19T09:28:33.970Z,35.51367
2024-04-19T09:30:34.131Z,35.99023
2024-04-19T09:32:34.187Z,35.06543
2024-04-19T09:34:33.977Z,37.9541
2024-04-19T09:36:34.139Z,37.54688
2024-04-19T09:38:33.996Z,38.56348
2024-04-19T09:40:33.967Z,37.79785
2024-04-19T09:43:50.071Z,35.0459
2024-04-19T09:45:50.051Z,36.84082
2024-04-19T09:47:49.928Z,37.70996
2024-04-19T09:49:50.401Z,36.75879
2024-04-19T09:51:50.098Z,34.35156
2024-04-19T09:53:49.839Z,37.97949
2024-04-19T09:55:50.038Z,36.43359
2024-04-19T09:59:29.605Z,33.99805
2024-04-19T10:01:29.894Z,37.3125
2024-04-19T10:03:29.668Z,33.91113
2024-04-19T10:05:29.625Z,35.94727
2024-04-19T10:07:29.587Z,39.74316
2024-04-19T10:09:30.177Z,35.42578
2024-04-19T10:11:29.633Z,35.75098
2024-04-19T10:14:29.581Z,35.56934
2024-04-19T10:16:29.391Z,33.62109
2024-04-19T10:18:29.579Z,32.48535
2024-04-19T10:20:29.369Z,33.26953
2024-04-19T10:22:29.342Z,34.21875
2024-04-19T10:24:29.511Z,34.17578
2024-04-19T10:26:29.348Z,34.14551
2024-04-19T10:29:22.777Z,34.12988
2024-04-19T10:31:22.863Z,37.19824
2024-04-19T10:33:22.883Z,33.65039
2024-04-19T10:35:22.804Z,35.70801
2024-04-19T10:37:22.873Z,34.43359
2024-04-19T10:39:22.845Z,32.77246
2024-04-19T10:41:22.804Z,39.20801
2024-04-19T10:44:20.084Z,31.91113
2024-04-19T10:46:20.038Z,34.14453
2024-04-19T10:48:20.055Z,32.81445
2024-04-19T10:50:19.989Z,35.45703
2024-04-19T10:52:20.571Z,35.02734
2024-04-19T10:54:20.038Z,34.24609
2024-04-19T10:56:19.916Z,32.58496
2024-04-19T11:00:11.293Z,35.69531
2024-04-19T11:02:11.457Z,37.08105
2024-04-19T11:04:11.334Z,35.76367
2024-04-19T11:06:14.819Z,34.57715
2024-04-19T11:08:11.264Z,35.03809
2024-04-19T11:10:11.204Z,34.33594
2024-04-19T11:12:11.311Z,33.71289
2024-04-19T11:14:52.614Z,35.29785
2024-04-19T11:16:52.594Z,36.28613
2024-04-19T11:18:52.643Z,33.69629
2024-04-19T11:21:05.367Z,33.49902
2024-04-19T11:22:52.563Z,36.3584
2024-04-19T11:24:52.700Z,32.54395
2024-04-19T11:26:52.608Z,35.05566
2024-04-19T11:29:53.383Z,32.68262
2024-04-19T11:31:53.619Z,33.01855
2024-04-19T11:33:53.674Z,33.3291
2024-04-19T11:35:53.377Z,30.36426
2024-04-19T11:37:53.445Z,33.52051
2024-04-19T11:39:53.577Z,34.98633
2024-04-19T11:41:53.387Z,32.60156
2024-04-19T11:45:32.304Z,33.04492
2024-04-19T11:47:32.395Z,34.38477
2024-04-19T11:49:32.266Z,32.49609
2024-04-19T11:51:32.525Z,33.55371
2024-04-19T11:53:32.213Z,34.27051
2024-04-19T11:55:32.274Z,32.06445
2024-04-19T11:57:32.619Z,31.32129
2024-04-19T12:00:29.950Z,31.67871
2024-04-19T12:02:30.006Z,32.61133
2024-04-19T12:04:30.571Z,33.7207
2024-04-19T12:06:30.111Z,33.58496
2024-04-19T12:08:30.100Z,29.13965
2024-04-19T12:10:29.982Z,32.2832
2024-04-19T12:12:51.880Z,33.56543
2024-04-19T12:16:16.096Z,32.05078
2024-04-19T12:17:48.032Z,34.18164
2024-04-19T12:19:48.083Z,34.77344
2024-04-19T12:21:49.325Z,34.23828
2024-04-19T12:23:49.336Z,35.40527
2024-04-19T12:25:49.978Z,32.49609
2024-04-19T12:27:48.092Z,30.23926
2024-04-19T12:30:25.151Z,32.79785
2024-04-19T12:32:25.209Z,29.78516
2024-04-19T12:34:25.128Z,30.11133
2024-04-19T12:36:25.268Z,32.1582
2024-04-19T12:38:25.060Z,30.10547
2024-04-19T12:40:25.066Z,29.16895
2024-04-19T12:42:25.227Z,30.2793
2024-04-19T12:45:39.427Z,31.5918
2024-04-19T12:47:39.271Z,30.97363
2024-04-19T12:49:39.098Z,33.89453
2024-04-19T12:51:39.372Z,32.85254
2024-04-19T12:53:39.242Z,31.61426
2024-04-19T12:55:39.300Z,31.16992
2024-04-19T12:57:39.313Z,32.56348
2024-04-19T13:00:36.875Z,32.80078
2024-04-19T13:02:36.864Z,33.0459
2024-04-19T13:04:36.646Z,33.87402
2024-04-19T13:06:36.802Z,34.60352
2024-04-19T13:08:37.371Z,34.90527
2024-04-19T13:10:38.688Z,31.91602
2024-04-19T13:12:36.693Z,32.8418
2024-04-19T13:15:36.312Z,32.97559
2024-04-19T13:17:36.075Z,32.9668
2024-04-19T13:19:36.176Z,30.14746
2024-04-19T13:21:36.271Z,31.92383
2024-04-19T13:23:36.026Z,32.97949
2024-04-19T13:25:36.017Z,31.9707
2024-04-19T13:27:36.182Z,32.98926
2024-04-19T13:31:25.083Z,35.58301
2024-04-19T13:33:24.874Z,32.71484
2024-04-19T13:35:25.090Z,34.29004
2024-04-19T13:37:24.935Z,32.8584
2024-04-19T13:39:25.005Z,34.8125
2024-04-19T13:41:25.039Z,35.04395
2024-04-19T13:43:24.790Z,31.76172
2024-04-19T13:46:00.763Z,34.47461
2024-04-19T13:48:00.872Z,35.81934
2024-04-19T13:50:00.549Z,35.08691
2024-04-19T13:52:00.866Z,32.57031
2024-04-19T13:54:00.535Z,35.76758
2024-04-19T13:56:00.649Z,37.03711
2024-04-19T13:58:00.759Z,34.19531
2024-04-19T14:01:31.215Z,37.5498
2024-04-19T14:03:31.294Z,33.53125
2024-04-19T14:05:31.029Z,33.07422
2024-04-19T14:07:31.027Z,34.43262
2024-04-19T14:09:31.114Z,34.92676
2024-04-19T14:11:31.061Z,33.93945
2024-04-19T14:13:31.006Z,34.71289
2024-04-19T14:15:58.603Z,34.92676
2024-04-19T14:17:58.363Z,35.65137
2024-04-19T14:19:58.253Z,36.1084
2024-04-19T14:21:58.490Z,36.21875
2024-04-19T14:23:58.365Z,35.99219
2024-04-19T14:25:58.357Z,35.52441
2024-04-19T14:27:58.387Z,35.38574
2024-04-19T14:29:58.329Z,34.85645
2024-04-19T14:31:31.173Z,35.7168
2024-04-19T14:33:31.377Z,35.09082
2024-04-19T14:35:31.091Z,34.81836
2024-04-19T14:37:31.058Z,35.27246
2024-04-19T14:39:31.218Z,35.43359
2024-04-19T14:41:31.080Z,35.00391
2024-04-19T14:43:31.344Z,34.68066
2024-04-19T14:47:03.275Z,36.64258
2024-04-19T14:49:04.029Z,35.34277
2024-04-19T14:51:03.270Z,34.82422
2024-04-19T14:53:11.103Z,34.46484
2024-04-19T14:55:03.449Z,34.80664
2024-04-19T14:57:03.235Z,34.57129
2024-04-19T14:59:13.869Z,36.19824
2024-04-19T15:01:37.198Z,35.87793
2024-04-19T15:03:36.710Z,36.63965
2024-04-19T15:05:36.550Z,35.94336
2024-04-19T15:07:36.656Z,36.98633
2024-04-19T15:09:36.608Z,38.22656
2024-04-19T15:11:36.712Z,36.26855
2024-04-19T15:13:37.077Z,37.0166
2024-04-19T15:17:13.571Z,38.19238
2024-04-19T15:19:13.803Z,37.10742
2024-04-19T15:21:13.578Z,36.62012
2024-04-19T15:23:13.564Z,36.91016
2024-04-19T15:25:13.796Z,37.1582
2024-04-19T15:27:13.636Z,37.39746
2024-04-19T15:29:13.561Z,37.14551
2024-04-19T15:31:47.943Z,37.01074
2024-04-19T15:33:48.129Z,38.42578
2024-04-19T15:35:47.906Z,36.94336
2024-04-19T15:37:47.814Z,38.62109
2024-04-19T15:39:47.982Z,38.87598
2024-04-19T15:41:54.165Z,38.6748
2024-04-19T15:43:47.894Z,39.1582
2024-04-19T15:47:13.718Z,39.73047
2024-04-19T15:49:12.874Z,40.61035
2024-04-19T15:51:12.786Z,39.79297
2024-04-19T15:53:12.882Z,39.70215
2024-04-19T15:55:12.764Z,40.40723
2024-04-19T15:57:12.983Z,41.16797
2024-04-19T15:59:12.992Z,41.74609
2024-04-19T16:01:47.632Z,42.01172
2024-04-19T16:03:47.848Z,41.67871
2024-04-19T16:05:47.665Z,42.48633
2024-04-19T16:07:47.614Z,42.1123
2024-04-19T16:09:47.826Z,41.70313
2024-04-19T16:11:47.819Z,42
2024-04-19T16:13:47.630Z,42.11426
2024-04-19T16:15:47.827Z,41.875
2024-04-19T16:17:37.863Z,41.95703
2024-04-19T16:19:37.760Z,42.00879
2024-04-19T16:21:37.903Z,42.95605
2024-04-19T16:23:37.791Z,42.83496
2024-04-19T16:25:37.783Z,42.73535
2024-04-19T16:27:37.928Z,43.60938
2024-04-19T16:29:37.990Z,43.11035
2024-04-19T16:32:38.272Z,44.26953
2024-04-19T16:34:38.123Z,43.1416
2024-04-19T16:36:37.998Z,42.96777
2024-04-19T16:38:38.036Z,43.4873
2024-04-19T16:40:37.922Z,44.03516
2024-04-19T16:42:38.107Z,43.44824
2024-04-19T16:44:37.963Z,43.96387
2024-04-19T16:47:37.869Z,44.1875
2024-04-19T16:49:37.893Z,44.4209
2024-04-19T16:51:37.799Z,45.65137
2024-04-19T16:53:37.829Z,44.84277
2024-04-19T16:55:37.793Z,46.60742
2024-04-19T16:57:37.740Z,48.41309
2024-04-19T16:59:37.732Z,48.375
2024-04-19T17:02:32.048Z,48.99512
2024-04-19T17:04:32.059Z,49.31934
2024-04-19T17:06:32.207Z,49.54199
2024-04-19T17:08:32.114Z,50.43359
2024-04-19T17:10:32.146Z,50.26855
2024-04-19T17:12:32.123Z,51.67871
2024-04-19T17:14:32.072Z,51.42676
2024-04-19T17:17:32.406Z,53.12109
2024-04-19T17:19:32.136Z,53.37207
2024-04-19T17:21:32.175Z,53.16504
2024-04-19T17:23:32.244Z,53.53711
2024-04-19T17:25:32.371Z,53.73047
2024-04-19T17:27:32.558Z,54.81738
2024-04-19T17:29:32.322Z,54.7373
2024-04-19T17:31:32.564Z,54.74609
2024-04-19T17:32:43.237Z,54.70313
2024-04-19T17:34:42.712Z,55.09082
2024-04-19T17:36:43.224Z,55.45508
2024-04-19T17:38:42.758Z,55.19531
2024-04-19T17:40:43.217Z,55.66309
2024-04-19T17:42:42.900Z,55.55762
2024-04-19T17:44:42.826Z,56.01758
2024-04-19T17:47:57.929Z,56.19824
2024-04-19T17:49:57.802Z,56.03027
2024-04-19T17:51:57.930Z,55.81152
2024-04-19T17:53:57.968Z,56.89844
2024-04-19T17:55:57.748Z,56.74316
2024-04-19T17:57:57.837Z,56.66406
2024-04-19T17:59:58.029Z,57.19531
2024-04-19T18:03:42.743Z,56.71875
2024-04-19T18:05:42.791Z,57.47852
2024-04-19T18:07:42.591Z,57.83496
2024-04-19T18:09:42.705Z,58.33887
2024-04-19T18:11:42.564Z,58.51074
2024-04-19T18:13:42.686Z,58.9541
2024-04-19T18:15:42.906Z,58.55957
2024-04-19T18:18:18.566Z,57.94727
2024-04-19T18:20:18.224Z,58.64551
2024-04-19T18:22:18.939Z,58.80566
2024-04-19T18:24:18.392Z,59.17773
2024-04-19T18:26:18.124Z,59.44922
2024-04-19T18:28:18.212Z,57.50488
2024-04-19T18:30:19.484Z,59.38574
2024-04-19T18:33:10.546Z,59.05957
2024-04-19T18:35:10.357Z,59.80469
2024-04-19T18:37:10.800Z,60.12012
2024-04-19T18:39:10.548Z,60.39453
2024-04-19T18:41:10.349Z,60.66504
2024-04-19T18:43:10.607Z,60.75977
2024-04-19T18:45:10.381Z,60.60254
2024-04-19T18:47:10.525Z,59.90039
2024-04-19T18:49:11.529Z,60.26367
2024-04-19T18:51:11.007Z,59.97852
2024-04-19T18:53:10.569Z,60.30762
2024-04-19T18:55:10.798Z,60.22656
2024-04-19T18:57:10.810Z,59.93848
2024-04-19T18:59:10.675Z,59.4502
2024-04-19T19:01:10.842Z,60.2168
2024-04-19T19:04:04.426Z,60.02344
2024-04-19T19:06:04.298Z,59.05566
2024-04-19T19:08:04.383Z,60.41113
2024-04-19T19:10:04.550Z,58.19141
2024-04-19T19:12:04.470Z,59.51953
2024-04-19T19:14:04.365Z,59.98242
2024-04-19T19:16:04.527Z,60.02734
2024-04-19T19:18:39.953Z,59.85352
2024-04-19T19:20:39.370Z,60.30859
2024-04-19T19:22:39.468Z,60.41602
2024-04-19T19:24:39.428Z,60.18555
2024-04-19T19:26:39.366Z,60.52539
2024-04-19T19:28:39.466Z,59.74219
2024-04-19T19:30:39.547Z,60.3291
2024-04-19T19:33:36.183Z,58.04492
2024-04-19T19:35:36.228Z,59.08301
2024-04-19T19:37:36.041Z,59.9209
2024-04-19T19:39:36.297Z,60.20801
2024-04-19T19:41:36.181Z,60.4502
2024-04-19T19:43:38.053Z,59.93555
2024-04-19T19:45:36.057Z,60.15332
2024-04-19T19:47:36.352Z,59.78418
2024-04-19T19:49:19.634Z,59.59668
2024-04-19T19:51:19.619Z,58.40332
2024-04-19T19:53:19.848Z,59.76367
2024-04-19T19:55:19.646Z,60.25
2024-04-19T19:57:19.614Z,60.17871
2024-04-19T19:59:20.015Z,60.40918
2024-04-19T20:01:20.027Z,59.81543
2024-04-19T20:03:55.195Z,59.80371
2024-04-19T20:05:55.060Z,60.63965
2024-04-19T20:07:55.052Z,60.31738
2024-04-19T20:09:55.305Z,61.06348
2024-04-19T20:11:58.045Z,60.30664
2024-04-19T20:13:55.163Z,59.79492
2024-04-19T20:15:55.058Z,60.29785
2024-04-19T20:17:55.892Z,60.8252
2024-04-19T20:19:19.424Z,60.69238
2024-04-19T20:21:19.418Z,60.48633
2024-04-19T20:23:19.290Z,61.05957
2024-04-19T20:25:19.324Z,60.78809
2024-04-19T20:27:19.734Z,61.45605
2024-04-19T20:29:19.628Z,61.03613
2024-04-19T20:31:19.318Z,61.36426
2024-04-19T20:34:40.662Z,61.97266
2024-04-19T20:36:40.479Z,62.20605
2024-04-19T20:38:40.538Z,62.11426
2024-04-19T20:40:40.629Z,61.79102
2024-04-19T20:42:40.516Z,62.08496
2024-04-19T20:44:40.464Z,62.37305
2024-04-19T20:46:40.566Z,62.00098
2024-04-19T20:50:02.470Z,62.22461
2024-04-19T20:52:03.104Z,62.12402
2024-04-19T20:54:02.476Z,62.88281
2024-04-19T20:56:02.549Z,62.85547
2024-04-19T20:58:02.770Z,62.95508
2024-04-19T21:00:02.475Z,62.57129
2024-04-19T21:02:02.488Z,62.75586
2024-04-19T21:05:16.216Z,62.3877
2024-04-19T21:07:16.397Z,62.79102
2024-04-19T21:09:16.046Z,62.79883
2024-04-19T21:11:16.336Z,63.22949
2024-04-19T21:13:20.754Z,63.5498
2024-04-19T21:15:16.031Z,63.38184
2024-04-19T21:17:16.357Z,63.60254
2024-04-19T21:20:09.398Z,63.40234
2024-04-19T21:22:09.665Z,63.46191
2024-04-19T21:24:09.382Z,63.45215
2024-04-19T21:26:09.667Z,64.06543
2024-04-19T21:28:09.577Z,63.5918
2024-04-19T21:30:09.355Z,63.89258
2024-04-19T21:32:09.438Z,64.03223
2024-04-19T21:35:16.948Z,64.29199
2024-04-19T21:37:16.789Z,63.91504
2024-04-19T21:39:16.790Z,64.5332
2024-04-19T21:41:16.892Z,64.05176
2024-04-19T21:43:16.742Z,63.47949
2024-04-19T21:45:16.855Z,63.49707
2024-04-19T21:47:16.971Z,64.18262
2024-04-19T21:50:31.374Z,63.73828
2024-04-19T21:52:31.457Z,64.28418
2024-04-19T21:54:31.454Z,64.2207
2024-04-19T21:56:31.358Z,64.41797
2024-04-19T21:58:31.472Z,64.2998
2024-04-19T22:00:31.510Z,64.82715
2024-04-19T22:02:31.364Z,64.9707
2024-04-19T22:05:22.771Z,64.9707
2024-04-19T22:07:22.579Z,64.64258
2024-04-19T22:09:22.606Z,65.08984
2024-04-19T22:11:22.819Z,64.92578
2024-04-19T22:13:22.571Z,64.88281
2024-04-19T22:15:22.636Z,64.59766
2024-04-19T22:17:22.766Z,64.52832
2024-04-19T22:20:07.740Z,63.88086
2024-04-19T22:22:07.925Z,64.18652
2024-04-19T22:24:08.019Z,63.98438
2024-04-19T22:26:07.776Z,64.6543
2024-04-19T22:28:07.819Z,64.60449
2024-04-19T22:30:07.828Z,64.99512
2024-04-19T22:32:07.806Z,64.90039
2024-04-19T22:34:07.921Z,65.1709
2024-04-19T22:35:51.916Z,64.55469
2024-04-19T22:37:51.553Z,65.29395
2024-04-19T22:39:51.810Z,65.50391
2024-04-19T22:41:51.566Z,64.99707
2024-04-19T22:43:51.593Z,64.51074
2024-04-19T22:45:51.665Z,64.6377
2024-04-19T22:47:51.627Z,65.21875
2024-04-19T22:50:51.825Z,65.0957
2024-04-19T22:52:51.728Z,64.81934
2024-04-19T22:54:51.822Z,64.90332
2024-04-19T22:56:51.837Z,64.50586
2024-04-19T22:58:51.893Z,64.49219
2024-04-19T23:00:51.976Z,65.68359
2024-04-19T23:02:52.201Z,65.19043
2024-04-19T23:05:55.150Z,64.92773
2024-04-19T23:07:54.898Z,65.11523
2024-04-19T23:09:55.301Z,65.96289
2024-04-19T23:11:54.974Z,65.75977
2024-04-19T23:13:54.919Z,66.21777
2024-04-19T23:15:55.067Z,66.04395
2024-04-19T23:17:55.014Z,65.38965
2024-04-19T23:21:20.574Z,65.94922
2024-04-19T23:23:20.807Z,66.10059
2024-04-19T23:25:20.590Z,65.92969
2024-04-19T23:27:21.039Z,65.56641
2024-04-19T23:29:20.586Z,64.44336
2024-04-19T23:31:20.583Z,66.00684
2024-04-19T23:33:20.819Z,65.81836
2024-04-19T23:36:24.378Z,65.80078
2024-04-19T23:38:24.500Z,65.47363
2024-04-19T23:40:24.301Z,66.18945
2024-04-19T23:42:24.311Z,66.47363
2024-04-19T23:44:24.504Z,66.31152
2024-04-19T23:46:24.359Z,65.97754
2024-04-19T23:48:24.523Z,66.37988
2024-04-19T23:51:41.943Z,66.33984
2024-04-19T23:53:41.775Z,66.43945
2024-04-19T23:55:41.892Z,66.47461
2024-04-19T23:57:41.817Z,66.82129
2024-04-19T23:59:41.897Z,67.03516
